Elberta, Michigan
Current Conditions -  °F | °C
As of 12:16 AM on Tuesday 21 Oct 2014 (Local Time) from KFKS Reporting Station
Light Rain Light Rain  
Wind Chill: 44°   Ceiling: 1800
Heat Index: 47°   Visibility: 10mi
Dew Point: 42°   Wind: 6mph
Humidity: 84%   Direction: 350°N
Pressure: 29.98"   Gusts: NA
Location:  44.62°N, 86.23°W
Report Text: KFKS 210416Z AUTO 35005KT 10SM -RA SCT012 OVC018 08/06 A2998 RMK AO2 T00820056
Loading
Personal Weather Stations






























Interactive Weather Map
Tropical Storm Tracking
New forecast layout! Learn more

10-Day Weather Forecast

Advertisements
Track Severe Weather on mobile